Time;durP1;ratioP1;P1;durP2;ratioP2;P2;SDS_P1;SDS_P2;PMS_P1;PMS_P2;Temp;Humidity;BMP_temperature;BMP_pressure;BME280_temperature;BME280_humidity;BME280_pressure;Samples;Min_cycle;Max_cycle;Signal;HPM_P1;HPM_P2
2021/12/01 00:00:30;;;;;;;9.53;1.80;;;2.40;99.90;;;;;;5240189;28;20214;-47
2021/12/01 00:03:01;;;;;;;3.40;2.20;;;2.40;99.90;;;;;;5242145;28;20536;-49
2021/12/01 00:05:33;;;;;;;7.60;3.70;;;2.40;99.90;;;;;;5241724;28;20187;-46
2021/12/01 00:08:04;;;;;;;12.57;5.00;;;2.50;99.90;;;;;;5241100;28;20951;-48
2021/12/01 00:10:36;;;;;;;11.50;4.40;;;2.50;99.90;;;;;;5241720;28;20523;-46
2021/12/01 00:13:13;;;;;;;6.33;2.40;;;2.50;99.90;;;;;;5239861;28;20178;-47
2021/12/01 00:15:45;;;;;;;8.07;2.27;;;2.50;99.90;;;;;;5239614;28;20474;-47
2021/12/01 00:18:16;;;;;;;6.17;2.50;;;2.50;99.90;;;;;;5241175;28;20468;-48
2021/12/01 00:20:47;;;;;;;3.97;1.40;;;2.60;99.90;;;;;;5241685;28;20864;-47
2021/12/01 00:23:17;;;;;;;4.00;1.53;;;2.50;99.90;;;;;;5240432;28;20190;-47
2021/12/01 00:25:48;;;;;;;4.97;1.70;;;2.60;99.90;;;;;;5240412;28;20768;-47
2021/12/01 00:28:19;;;;;;;7.67;1.57;;;2.60;99.90;;;;;;5243997;28;20199;-47
2021/12/01 00:30:51;;;;;;;3.77;1.23;;;2.60;99.90;;;;;;5242208;28;20259;-46
2021/12/01 00:33:22;;;;;;;2.73;1.30;;;2.60;99.90;;;;;;5240222;28;20538;-48
2021/12/01 00:35:55;;;;;;;8.87;2.00;;;2.60;99.90;;;;;;5242821;28;20429;-49
2021/12/01 00:38:28;;;;;;;3.80;1.53;;;2.60;99.90;;;;;;5243409;28;20520;-47
2021/12/01 00:41:02;;;;;;;4.03;1.80;;;2.70;99.90;;;;;;5242893;28;20480;-47
2021/12/01 00:43:35;;;;;;;7.00;2.40;;;2.70;99.90;;;;;;5244676;28;20431;-47
2021/12/01 00:46:14;;;;;;;2.73;1.50;;;2.60;99.90;;;;;;5243101;28;20519;-49
2021/12/01 00:48:44;;;;;;;6.43;2.97;;;2.70;99.90;;;;;;5239867;28;20429;-48
2021/12/01 00:51:16;;;;;;;2.83;1.40;;;2.60;99.90;;;;;;5239102;28;21341;-45
2021/12/01 00:53:46;;;;;;;3.50;1.77;;;2.60;99.90;;;;;;5240604;28;20513;-49
2021/12/01 00:56:17;;;;;;;6.30;1.47;;;2.70;99.90;;;;;;5239694;28;20478;-48
2021/12/01 00:58:48;;;;;;;4.77;2.50;;;2.70;99.90;;;;;;5237310;28;20264;-49
2021/12/01 01:01:19;;;;;;;5.07;1.67;;;2.70;99.90;;;;;;5243477;28;20288;-49
2021/12/01 01:03:50;;;;;;;6.10;1.70;;;2.70;99.90;;;;;;5240685;28;20202;-48
2021/12/01 01:06:20;;;;;;;4.93;1.80;;;2.70;99.90;;;;;;5239939;28;20460;-47
2021/12/01 01:08:51;;;;;;;9.20;2.20;;;2.70;99.90;;;;;;5243048;28;20254;-48
2021/12/01 01:17:00;;;;;;;3.30;2.47;;;2.80;99.90;;;;;;5241310;28;20464;-48
2021/12/01 01:19:31;;;;;;;2.17;2.00;;;2.80;99.90;;;;;;5242235;28;20433;-46
2021/12/01 01:22:03;;;;;;;2.70;1.33;;;2.80;99.90;;;;;;5240379;28;20186;-49
2021/12/01 01:24:35;;;;;;;5.90;2.00;;;2.80;99.90;;;;;;5240658;28;20202;-46
2021/12/01 01:27:06;;;;;;;3.53;1.50;;;2.80;99.90;;;;;;5240698;28;20939;-48
2021/12/01 01:29:37;;;;;;;6.43;1.97;;;2.80;99.90;;;;;;5242360;28;20424;-46
2021/12/01 01:32:08;;;;;;;7.97;2.27;;;2.90;99.90;;;;;;5238333;28;20447;-46
2021/12/01 01:34:38;;;;;;;2.20;1.63;;;2.90;99.90;;;;;;5239675;28;20263;-47
2021/12/01 01:37:09;;;;;;;6.17;1.53;;;2.90;99.90;;;;;;5257349;28;20292;-48
2021/12/01 01:39:40;;;;;;;3.33;1.47;;;2.80;99.90;;;;;;5240615;28;20179;-46
2021/12/01 01:42:11;;;;;;;4.73;1.70;;;2.90;99.90;;;;;;5242176;28;20270;-47
2021/12/01 01:44:41;;;;;;;11.10;2.37;;;2.80;99.90;;;;;;5241028;28;20202;-47
2021/12/01 01:47:12;;;;;;;9.90;2.30;;;2.90;99.90;;;;;;5240378;28;20205;-49
2021/12/01 01:52:13;;;;;;;7.27;2.03;;;3.00;99.90;;;;;;5243117;28;20178;-48
2021/12/01 01:54:44;;;;;;;20.93;3.03;;;2.90;99.90;;;;;;5240288;28;20210;-47
2021/12/01 01:57:15;;;;;;;18.63;2.50;;;2.90;99.90;;;;;;5240815;28;20316;-49
2021/12/01 01:59:45;;;;;;;11.23;2.63;;;3.10;99.90;;;;;;5238742;28;20182;-47
2021/12/01 02:02:16;;;;;;;15.67;2.90;;;3.20;99.90;;;;;;5239753;28;20266;-47
2021/12/01 02:04:47;;;;;;;8.20;2.73;;;3.10;99.90;;;;;;5236681;28;20210;-47
2021/12/01 02:07:17;;;;;;;17.27;3.20;;;3.00;99.90;;;;;;5240385;28;20263;-49
2021/12/01 02:09:48;;;;;;;10.70;2.57;;;3.10;99.90;;;;;;5228173;28;20170;-47
2021/12/01 02:12:19;;;;;;;12.03;2.97;;;3.10;99.90;;;;;;5242229;28;20174;-51
2021/12/01 02:14:49;;;;;;;9.33;2.40;;;3.10;99.90;;;;;;5244532;28;20166;-46
2021/12/01 02:17:20;;;;;;;15.03;2.70;;;3.10;99.90;;;;;;5243035;28;20278;-46
2021/12/01 02:19:55;;;;;;;19.43;2.60;;;3.20;99.90;;;;;;5241840;28;20176;-47
2021/12/01 02:22:26;;;;;;;20.47;2.70;;;3.20;99.90;;;;;;5246673;28;20174;-47
2021/12/01 02:24:57;;;;;;;13.50;3.97;;;3.10;99.90;;;;;;5241517;28;20539;-47
2021/12/01 02:27:27;;;;;;;9.67;2.40;;;3.10;99.90;;;;;;5244954;28;20551;-47
2021/12/01 02:29:58;;;;;;;8.07;2.30;;;3.20;99.90;;;;;;5245211;28;20231;-47
2021/12/01 02:32:29;;;;;;;7.00;2.23;;;3.10;99.90;;;;;;5241804;28;20170;-47
2021/12/01 02:34:59;;;;;;;21.17;4.00;;;3.00;99.90;;;;;;5245243;28;20636;-48
2021/12/01 02:37:30;;;;;;;15.30;2.83;;;2.90;99.90;;;;;;5238569;28;20286;-47
2021/12/01 02:40:02;;;;;;;5.30;1.93;;;2.90;99.90;;;;;;5238854;28;20574;-48
2021/12/01 02:42:33;;;;;;;15.23;3.73;;;2.90;99.90;;;;;;5242460;28;20435;-49
2021/12/01 02:45:04;;;;;;;16.17;3.07;;;2.90;99.90;;;;;;5244020;28;20453;-46
2021/12/01 02:47:35;;;;;;;13.93;3.20;;;3.00;99.90;;;;;;5240706;28;20198;-46
2021/12/01 02:50:06;;;;;;;11.93;2.60;;;3.10;99.90;;;;;;5243183;28;20425;-47
2021/12/01 02:52:37;;;;;;;13.73;3.43;;;3.60;99.90;;;;;;5242862;28;20181;-47
2021/12/01 02:55:10;;;;;;;9.37;3.27;;;3.40;99.90;;;;;;5244702;28;20904;-48
2021/12/01 02:57:50;;;;;;;9.73;3.30;;;3.70;99.90;;;;;;5227269;28;20266;-46
2021/12/01 03:00:23;;;;;;;10.50;2.93;;;3.60;99.90;;;;;;5244641;28;20753;-46
2021/12/01 03:02:56;;;;;;;11.23;2.80;;;3.50;99.90;;;;;;5244048;28;20421;-49
2021/12/01 03:05:27;;;;;;;6.80;2.50;;;3.60;99.90;;;;;;5241866;28;20469;-49
2021/12/01 03:07:58;;;;;;;14.37;2.67;;;3.60;99.90;;;;;;5238491;28;20510;-47
2021/12/01 03:10:29;;;;;;;19.40;3.50;;;3.70;99.90;;;;;;5244568;28;20266;-46
2021/12/01 03:12:59;;;;;;;6.70;2.80;;;3.50;99.90;;;;;;5245428;28;21639;-48
2021/12/01 03:15:30;;;;;;;10.50;3.17;;;3.60;99.90;;;;;;5244324;28;20622;-48
2021/12/01 03:18:01;;;;;;;9.70;2.83;;;3.50;99.90;;;;;;5244330;28;20287;-48
2021/12/01 03:20:31;;;;;;;17.23;2.43;;;3.50;99.90;;;;;;5241839;28;20622;-48
2021/12/01 03:23:02;;;;;;;10.07;2.97;;;3.50;99.90;;;;;;5244204;28;20256;-49
2021/12/01 03:25:33;;;;;;;14.53;2.50;;;3.50;99.90;;;;;;5227223;28;20206;-48
2021/12/01 03:28:06;;;;;;;16.30;3.20;;;3.60;99.90;;;;;;5245667;28;20312;-48
2021/12/01 03:30:38;;;;;;;13.50;2.10;;;3.70;99.90;;;;;;5244671;28;20433;-48
2021/12/01 03:33:13;;;;;;;3.90;1.77;;;3.60;99.90;;;;;;5242391;28;20436;-49
2021/12/01 03:35:46;;;;;;;10.47;2.90;;;3.80;99.90;;;;;;5227608;28;20459;-48
2021/12/01 03:38:19;;;;;;;16.37;3.10;;;3.70;99.90;;;;;;5240806;28;20457;-48
2021/12/01 03:40:49;;;;;;;14.63;2.90;;;3.70;99.90;;;;;;5243196;28;20443;-47
2021/12/01 03:43:20;;;;;;;9.90;2.83;;;3.70;99.90;;;;;;5244850;28;20450;-47
2021/12/01 03:45:51;;;;;;;10.00;2.70;;;3.90;99.90;;;;;;5239391;28;20190;-48
2021/12/01 03:48:23;;;;;;;6.80;2.13;;;3.80;99.90;;;;;;5242366;28;20623;-49
2021/12/01 03:50:54;;;;;;;10.13;2.60;;;3.80;99.90;;;;;;5239972;28;20920;-47
2021/12/01 03:53:25;;;;;;;7.13;2.00;;;3.80;99.90;;;;;;5239945;28;20477;-48
2021/12/01 03:55:56;;;;;;;19.30;2.50;;;4.00;99.90;;;;;;5242234;28;20596;-46
2021/12/01 03:58:27;;;;;;;11.00;2.60;;;3.90;99.90;;;;;;5221266;28;21024;-50
2021/12/01 04:00:57;;;;;;;12.13;2.43;;;3.80;99.90;;;;;;5239960;28;20656;-48
2021/12/01 04:03:28;;;;;;;8.83;2.60;;;3.80;99.90;;;;;;5242801;28;20176;-50
2021/12/01 04:05:59;;;;;;;14.13;2.70;;;3.80;99.90;;;;;;5242810;28;20182;-48
2021/12/01 04:08:29;;;;;;;13.67;2.77;;;3.70;99.90;;;;;;5244218;28;20166;-48
2021/12/01 04:11:00;;;;;;;15.00;2.30;;;3.70;99.90;;;;;;5239243;28;20210;-47
2021/12/01 04:13:31;;;;;;;25.87;3.60;;;3.80;99.90;;;;;;5244832;28;20432;-47
2021/12/01 04:16:03;;;;;;;25.27;3.37;;;4.00;99.90;;;;;;5240233;28;20180;-50
2021/12/01 04:18:33;;;;;;;11.17;3.30;;;3.90;99.90;;;;;;5242610;28;20649;-47
2021/12/01 04:21:04;;;;;;;25.60;3.07;;;3.90;99.90;;;;;;5240527;28;20729;-47
2021/12/01 04:23:35;;;;;;;7.10;2.77;;;4.00;99.90;;;;;;5244095;28;20181;-48
2021/12/01 04:26:11;;;;;;;13.53;4.10;;;3.80;99.90;;;;;;5242117;28;20233;-48
2021/12/01 04:28:41;;;;;;;10.00;3.60;;;3.70;99.90;;;;;;5240614;28;20182;-47
2021/12/01 04:31:12;;;;;;;8.30;2.90;;;3.70;99.90;;;;;;5240456;28;20445;-47
2021/12/01 04:33:43;;;;;;;10.20;1.90;;;3.60;99.90;;;;;;5241188;28;20187;-50
2021/12/01 04:36:16;;;;;;;15.80;3.57;;;3.70;99.90;;;;;;5242647;28;20460;-48
2021/12/01 04:38:47;;;;;;;6.73;2.67;;;3.70;99.90;;;;;;5239579;28;20229;-50
2021/12/01 04:41:18;;;;;;;18.17;3.40;;;3.70;99.90;;;;;;5243411;28;20492;-48
2021/12/01 04:43:50;;;;;;;11.47;3.20;;;3.70;99.90;;;;;;5241880;28;20198;-46
2021/12/01 04:46:21;;;;;;;12.20;3.00;;;3.70;99.90;;;;;;5237873;28;20464;-50
2021/12/01 04:48:51;;;;;;;21.97;3.10;;;3.70;99.90;;;;;;5238634;28;20421;-47
2021/12/01 04:51:22;;;;;;;15.27;3.80;;;3.50;99.90;;;;;;5242438;28;20480;-47
2021/12/01 04:53:52;;;;;;;13.93;3.20;;;3.60;99.90;;;;;;5236682;28;20642;-47
2021/12/01 04:56:23;;;;;;;26.27;3.07;;;3.70;99.90;;;;;;5240324;28;20630;-48
2021/12/01 04:58:54;;;;;;;20.93;3.73;;;3.60;99.90;;;;;;5222541;28;20174;-47
2021/12/01 05:01:25;;;;;;;27.87;4.10;;;3.50;99.90;;;;;;5237878;28;20187;-49
2021/12/01 05:03:55;;;;;;;18.37;3.30;;;3.50;99.90;;;;;;5234929;28;20218;-48
2021/12/01 05:06:26;;;;;;;10.90;3.50;;;3.40;99.90;;;;;;5240404;28;20925;-48
2021/12/01 05:08:57;;;;;;;20.30;3.57;;;3.40;99.90;;;;;;5242382;28;20186;-48
2021/12/01 05:11:27;;;;;;;15.27;3.40;;;3.40;99.90;;;;;;5237058;28;20181;-49
2021/12/01 05:13:58;;;;;;;14.83;3.70;;;3.30;99.90;;;;;;5239159;28;20185;-48
2021/12/01 05:16:29;;;;;;;13.60;3.73;;;3.30;99.90;;;;;;5238238;28;20209;-49
2021/12/01 05:19:00;;;;;;;6.30;2.60;;;3.30;99.90;;;;;;5237064;28;20190;-48
2021/12/01 05:21:31;;;;;;;15.97;3.50;;;3.30;99.90;;;;;;5238054;28;20278;-48
2021/12/01 05:24:02;;;;;;;14.97;3.60;;;3.20;99.90;;;;;;5224038;28;20970;-47
2021/12/01 05:26:33;;;;;;;20.20;3.70;;;3.30;99.90;;;;;;5242737;28;20493;-48
2021/12/01 05:29:05;;;;;;;20.43;2.77;;;3.20;99.90;;;;;;5236476;28;20468;-48
2021/12/01 05:31:35;;;;;;;17.93;4.13;;;3.30;99.90;;;;;;5236518;28;20501;-48
2021/12/01 05:34:06;;;;;;;20.87;2.70;;;3.20;99.90;;;;;;5237005;28;20424;-48
2021/12/01 05:36:39;;;;;;;12.73;3.77;;;3.20;99.90;;;;;;5231021;28;20270;-48
2021/12/01 05:39:10;;;;;;;29.03;3.67;;;3.20;99.90;;;;;;5231796;28;20202;-47
2021/12/01 05:41:44;;;;;;;17.87;4.07;;;3.20;99.90;;;;;;5234457;28;20505;-48
2021/12/01 05:44:15;;;;;;;12.57;3.37;;;3.30;99.90;;;;;;5236062;28;20210;-48
2021/12/01 05:46:45;;;;;;;14.43;4.17;;;3.40;99.90;;;;;;5239103;28;20522;-48
2021/12/01 05:49:16;;;;;;;24.00;4.20;;;3.40;99.90;;;;;;5243729;28;20214;-48
2021/12/01 05:51:47;;;;;;;21.90;3.70;;;3.40;99.90;;;;;;5224274;28;20214;-48
2021/12/01 05:54:18;;;;;;;15.40;4.20;;;3.40;99.90;;;;;;5238849;28;20602;-48
2021/12/01 05:56:48;;;;;;;21.80;3.63;;;3.40;99.90;;;;;;5236013;28;20229;-48
2021/12/01 05:59:19;;;;;;;13.20;4.17;;;3.40;99.90;;;;;;5236982;28;20650;-48
2021/12/01 06:01:49;;;;;;;23.53;3.83;;;3.40;99.90;;;;;;5237763;28;20565;-48
2021/12/01 06:04:24;;;;;;;35.90;4.70;;;3.40;99.90;;;;;;5237512;28;20560;-48
2021/12/01 06:06:55;;;;;;;19.83;4.13;;;3.40;99.90;;;;;;5237961;28;20281;-48
2021/12/01 06:09:25;;;;;;;14.20;4.20;;;3.50;99.90;;;;;;5236301;28;20444;-49
2021/12/01 06:11:56;;;;;;;16.60;4.60;;;3.50;99.90;;;;;;5239045;28;20432;-48
2021/12/01 06:14:27;;;;;;;24.03;5.37;;;3.50;99.90;;;;;;5237323;28;20230;-48
2021/12/01 06:16:59;;;;;;;21.07;5.20;;;3.40;99.90;;;;;;5232745;28;20225;-48
2021/12/01 06:19:34;;;;;;;20.23;5.60;;;3.50;99.90;;;;;;5234945;28;20538;-48
2021/12/01 06:22:05;;;;;;;27.17;5.40;;;3.50;99.90;;;;;;5234768;28;20466;-48
2021/12/01 06:24:36;;;;;;;19.23;6.80;;;3.60;99.90;;;;;;5235981;28;20240;-48
2021/12/01 06:27:11;;;;;;;25.40;7.67;;;3.50;99.90;;;;;;5233907;28;20905;-47
2021/12/01 06:29:44;;;;;;;19.47;6.67;;;3.50;99.90;;;;;;5238007;28;21967;-47
2021/12/01 06:32:15;;;;;;;41.50;9.27;;;3.50;99.90;;;;;;5236997;28;20482;-48
2021/12/01 06:34:46;;;;;;;17.77;7.67;;;3.50;99.90;;;;;;5236874;28;20563;-48
2021/12/01 06:37:18;;;;;;;27.70;9.03;;;3.50;99.90;;;;;;5215940;28;20331;-48
2021/12/01 06:39:50;;;;;;;23.53;8.07;;;3.60;99.90;;;;;;5232883;28;20298;-47
2021/12/01 06:42:20;;;;;;;25.70;9.00;;;3.60;99.90;;;;;;5221065;28;21372;-48
2021/12/01 06:44:51;;;;;;;28.17;10.13;;;3.60;99.90;;;;;;5229267;28;20467;-48
2021/12/01 06:47:22;;;;;;;22.70;9.57;;;3.60;99.90;;;;;;5239064;28;20198;-48
2021/12/01 06:49:52;;;;;;;21.57;10.00;;;3.70;99.90;;;;;;5234094;28;20191;-47
2021/12/01 06:52:23;;;;;;;36.37;9.30;;;3.80;99.90;;;;;;5230570;28;20182;-48
2021/12/01 06:54:58;;;;;;;24.60;9.50;;;3.70;99.90;;;;;;5218683;28;20189;-48
2021/12/01 06:57:29;;;;;;;23.70;10.27;;;3.80;99.90;;;;;;5234278;28;20220;-48
2021/12/01 07:00:01;;;;;;;35.03;15.47;;;3.90;99.90;;;;;;5216709;28;20446;-49
2021/12/01 07:02:31;;;;;;;21.27;11.53;;;3.90;99.90;;;;;;5229707;28;20186;-49
2021/12/01 07:05:03;;;;;;;13.03;8.43;;;4.00;99.90;;;;;;5234423;28;20470;-47
2021/12/01 07:07:34;;;;;;;30.50;7.67;;;4.00;99.90;;;;;;5237312;28;20202;-48
2021/12/01 07:10:07;;;;;;;21.70;9.73;;;3.90;99.90;;;;;;5231169;28;20504;-49
2021/12/01 07:12:38;;;;;;;22.90;12.77;;;4.00;99.90;;;;;;5233139;28;20433;-49
2021/12/01 07:15:10;;;;;;;11.30;8.17;;;4.10;99.90;;;;;;5235591;28;20464;-49
2021/12/01 07:17:42;;;;;;;11.83;8.40;;;4.10;99.90;;;;;;5234557;28;20464;-48
2021/12/01 07:20:14;;;;;;;17.13;11.23;;;4.10;99.90;;;;;;5230938;28;20512;-48
2021/12/01 07:22:44;;;;;;;21.20;12.30;;;4.10;99.90;;;;;;5232203;28;20441;-48
2021/12/01 07:25:15;;;;;;;23.50;11.73;;;4.20;99.90;;;;;;5232086;28;20835;-48
2021/12/01 07:27:46;;;;;;;18.27;9.93;;;4.30;99.90;;;;;;5236657;28;20592;-49
2021/12/01 07:30:16;;;;;;;18.30;8.93;;;4.30;99.90;;;;;;5233163;28;20183;-48
2021/12/01 07:32:49;;;;;;;20.20;9.63;;;4.60;99.90;;;;;;5233784;28;20187;-48
2021/12/01 07:35:22;;;;;;;17.03;10.30;;;4.50;99.90;;;;;;5238548;28;20196;-49
2021/12/01 07:37:53;;;;;;;14.13;9.53;;;4.50;99.90;;;;;;5234374;28;20456;-49
2021/12/01 07:40:24;;;;;;;23.43;12.70;;;4.60;99.90;;;;;;5236727;28;20442;-48
2021/12/01 07:42:54;;;;;;;36.40;15.30;;;4.60;99.90;;;;;;5231183;28;20452;-49
2021/12/01 07:45:25;;;;;;;36.10;16.37;;;4.80;99.90;;;;;;5231927;28;20603;-50
2021/12/01 07:47:56;;;;;;;44.07;16.50;;;4.80;99.90;;;;;;5234186;28;20717;-48
2021/12/01 07:50:26;;;;;;;24.30;12.50;;;4.70;99.90;;;;;;5236123;28;20253;-48
2021/12/01 07:52:57;;;;;;;26.50;14.80;;;4.80;99.90;;;;;;5238520;28;20190;-48
2021/12/01 07:55:28;;;;;;;46.70;18.90;;;4.80;99.90;;;;;;5235928;28;20180;-48
2021/12/01 07:57:58;;;;;;;23.20;12.37;;;5.00;99.90;;;;;;5226541;28;20224;-48
2021/12/01 08:00:29;;;;;;;16.27;12.17;;;5.10;99.90;;;;;;5251875;28;20204;-50
2021/12/01 08:03:00;;;;;;;27.10;12.70;;;5.10;99.90;;;;;;5233012;28;20264;-49
2021/12/01 08:05:32;;;;;;;19.00;13.60;;;5.00;99.90;;;;;;5233985;28;20529;-49
2021/12/01 08:08:04;;;;;;;19.40;13.20;;;5.00;99.90;;;;;;5231939;28;20744;-49
2021/12/01 08:10:35;;;;;;;24.60;15.57;;;5.00;99.90;;;;;;5234088;28;20468;-49
2021/12/01 08:13:06;;;;;;;27.40;15.40;;;5.10;99.90;;;;;;5233831;28;20521;-49
2021/12/01 08:15:36;;;;;;;38.97;16.60;;;5.10;99.90;;;;;;5237677;28;20678;-48
2021/12/01 08:18:07;;;;;;;20.07;14.10;;;5.30;99.90;;;;;;5234506;28;20216;-48
2021/12/01 08:20:38;;;;;;;26.53;16.17;;;5.20;99.90;;;;;;5231772;28;20188;-49
2021/12/01 08:23:09;;;;;;;37.80;19.77;;;5.30;99.90;;;;;;5234905;28;20181;-50
2021/12/01 08:25:40;;;;;;;31.43;18.50;;;5.30;99.90;;;;;;5238231;28;20211;-48
2021/12/01 08:28:11;;;;;;;30.77;16.73;;;5.40;99.90;;;;;;5237265;28;20459;-50
2021/12/01 08:30:41;;;;;;;33.40;17.67;;;5.40;99.90;;;;;;5231843;28;20215;-49
2021/12/01 08:33:12;;;;;;;23.50;16.23;;;5.50;99.90;;;;;;5237023;28;20188;-48
2021/12/01 08:35:43;;;;;;;22.57;14.17;;;5.50;99.90;;;;;;5232103;28;20265;-49
2021/12/01 08:38:13;;;;;;;23.67;13.67;;;5.60;99.90;;;;;;5238771;28;20968;-49
2021/12/01 08:40:44;;;;;;;18.40;12.97;;;5.60;99.90;;;;;;5236761;28;20196;-49
2021/12/01 08:43:15;;;;;;;24.33;15.40;;;5.70;99.90;;;;;;5227480;28;21264;-50
2021/12/01 08:45:46;;;;;;;19.60;11.90;;;5.70;99.90;;;;;;5240295;28;20498;-48
2021/12/01 08:48:17;;;;;;;32.40;16.30;;;5.80;99.90;;;;;;5227426;28;20259;-49
2021/12/01 08:50:47;;;;;;;23.20;14.23;;;5.80;99.90;;;;;;5231571;28;20181;-49
2021/12/01 08:53:18;;;;;;;28.40;14.90;;;5.90;99.90;;;;;;5232305;28;20185;-47
2021/12/01 08:55:49;;;;;;;15.40;10.73;;;5.80;99.90;;;;;;5235975;28;20269;-47
2021/12/01 08:58:20;;;;;;;17.33;13.57;;;5.90;99.90;;;;;;5227215;28;20303;-49
2021/12/01 09:00:50;;;;;;;24.00;13.80;;;5.90;99.90;;;;;;5233739;28;20440;-47
2021/12/01 09:03:26;;;;;;;14.97;10.53;;;5.90;99.90;;;;;;5234216;28;20234;-48
2021/12/01 09:05:57;;;;;;;17.63;12.17;;;5.90;99.90;;;;;;5219283;28;20329;-47
2021/12/01 09:08:28;;;;;;;17.43;11.70;;;5.90;99.90;;;;;;5222220;28;20499;-49
2021/12/01 09:11:02;;;;;;;20.77;12.93;;;5.90;99.90;;;;;;5213351;28;20773;-49
2021/12/01 09:13:35;;;;;;;15.83;11.33;;;5.90;99.90;;;;;;5235449;28;20189;-48
2021/12/01 09:16:07;;;;;;;14.40;10.70;;;5.90;99.90;;;;;;5212829;28;20452;-48
2021/12/01 09:18:40;;;;;;;15.43;10.60;;;5.90;99.90;;;;;;5232607;28;20999;-50
2021/12/01 09:21:11;;;;;;;17.37;10.97;;;5.90;99.90;;;;;;5232417;28;20445;-49
2021/12/01 09:23:42;;;;;;;16.73;10.50;;;5.90;99.90;;;;;;5230471;28;20451;-50
2021/12/01 09:26:13;;;;;;;14.30;9.20;;;6.00;99.90;;;;;;5231559;28;20464;-49
2021/12/01 09:28:44;;;;;;;13.43;9.50;;;6.00;99.90;;;;;;5231869;28;20292;-49
2021/12/01 09:31:15;;;;;;;14.80;9.50;;;6.00;99.90;;;;;;5232843;28;20639;-49
2021/12/01 09:33:45;;;;;;;12.23;8.80;;;6.00;99.90;;;;;;5237276;28;20282;-49
2021/12/01 09:36:16;;;;;;;9.30;6.17;;;6.10;99.90;;;;;;5224893;28;20208;-50
2021/12/01 09:38:47;;;;;;;20.17;10.10;;;6.10;99.90;;;;;;5231789;28;20237;-49
2021/12/01 09:41:18;;;;;;;8.47;6.40;;;6.10;99.90;;;;;;5218285;28;20197;-49
2021/12/01 09:43:49;;;;;;;9.00;6.70;;;6.10;99.90;;;;;;5232196;28;20182;-48
2021/12/01 09:46:20;;;;;;;5.50;4.90;;;6.20;99.90;;;;;;5230045;28;20574;-50
2021/12/01 09:48:51;;;;;;;5.03;4.63;;;6.20;99.90;;;;;;5228774;28;20449;-49
2021/12/01 09:51:21;;;;;;;7.10;6.40;;;6.20;99.90;;;;;;5233281;28;20444;-49
2021/12/01 09:53:54;;;;;;;7.50;5.37;;;6.20;99.90;;;;;;5227781;28;20182;-49
2021/12/01 09:56:25;;;;;;;8.80;6.20;;;6.20;99.90;;;;;;5234762;28;20214;-49
2021/12/01 09:58:56;;;;;;;9.13;6.17;;;6.20;99.90;;;;;;5234342;28;20531;-49
2021/12/01 10:01:28;;;;;;;13.50;6.80;;;6.20;99.90;;;;;;5228537;28;20472;-50
2021/12/01 10:03:59;;;;;;;6.03;5.30;;;6.20;99.90;;;;;;5248335;28;20431;-50
2021/12/01 10:06:32;;;;;;;6.03;5.20;;;6.20;99.90;;;;;;5231167;28;20496;-49
2021/12/01 10:09:07;;;;;;;6.13;5.43;;;6.20;99.90;;;;;;5220366;28;20424;-49
2021/12/01 10:11:41;;;;;;;6.13;5.07;;;6.20;99.90;;;;;;5238179;28;20452;-49
2021/12/01 10:14:19;;;;;;;8.73;5.90;;;6.30;99.90;;;;;;5235766;28;20500;-49
2021/12/01 10:16:54;;;;;;;8.80;6.50;;;6.30;99.90;;;;;;5233390;28;20467;-49
2021/12/01 10:19:28;;;;;;;6.50;5.80;;;6.20;99.90;;;;;;5234058;28;20712;-49
2021/12/01 10:21:59;;;;;;;9.40;6.63;;;6.20;99.90;;;;;;5231117;28;20436;-48
2021/12/01 10:24:36;;;;;;;12.77;9.07;;;6.20;99.90;;;;;;5237766;28;20817;-49
2021/12/01 10:27:12;;;;;;;7.60;5.90;;;6.30;99.90;;;;;;5239757;28;20514;-49
2021/12/01 10:29:48;;;;;;;10.37;6.50;;;6.20;99.90;;;;;;5230767;28;20676;-50
2021/12/01 10:32:20;;;;;;;10.33;6.47;;;6.20;99.90;;;;;;5237594;28;20826;-48
2021/12/01 10:34:58;;;;;;;13.40;6.67;;;6.20;99.90;;;;;;5231262;28;20916;-50
2021/12/01 10:37:30;;;;;;;11.00;7.60;;;6.20;99.90;;;;;;5234932;28;20957;-49
2021/12/01 10:40:11;;;;;;;6.90;6.20;;;6.30;99.90;;;;;;5236546;28;20760;-49
2021/12/01 10:43:04;;;;;;;13.43;9.00;;;6.40;99.90;;;;;;5237958;28;20464;-50
2021/12/01 10:45:46;;;;;;;8.00;5.97;;;6.40;99.90;;;;;;5229816;28;20456;-49
2021/12/01 10:48:23;;;;;;;11.80;6.97;;;6.40;99.90;;;;;;5233431;28;20819;-48
2021/12/01 10:50:54;;;;;;;14.47;8.80;;;6.30;99.90;;;;;;5241695;28;20947;-49
2021/12/01 10:53:26;;;;;;;12.90;7.83;;;6.30;99.90;;;;;;5241473;28;20435;-49
2021/12/01 10:56:02;;;;;;;19.07;7.67;;;6.30;99.90;;;;;;5237228;28;20185;-50
2021/12/01 10:58:41;;;;;;;10.30;7.50;;;6.30;99.90;;;;;;5241107;28;20563;-48
2021/12/01 11:01:24;;;;;;;7.33;6.23;;;6.30;99.90;;;;;;5229524;28;20620;-49
2021/12/01 11:03:55;;;;;;;13.03;8.30;;;6.40;99.90;;;;;;5235706;28;20492;-49
2021/12/01 11:06:27;;;;;;;9.43;7.70;;;6.30;99.90;;;;;;5239063;28;20487;-49
2021/12/01 11:08:58;;;;;;;11.50;7.00;;;6.30;99.90;;;;;;5235512;28;20446;-49
2021/12/01 11:11:43;;;;;;;7.23;6.50;;;6.30;99.90;;;;;;5235714;28;21225;-48
2021/12/01 11:14:16;;;;;;;6.83;6.17;;;6.30;99.90;;;;;;5237229;28;20481;-49
2021/12/01 11:16:47;;;;;;;6.80;6.20;;;6.40;99.90;;;;;;5234172;28;21003;-50
2021/12/01 11:19:33;;;;;;;7.10;6.40;;;6.30;99.90;;;;;;5233091;28;20452;-50
2021/12/01 11:22:27;;;;;;;9.70;6.30;;;6.30;99.90;;;;;;5234728;28;20325;-50
2021/12/01 11:25:22;;;;;;;6.87;6.00;;;6.20;99.90;;;;;;5232281;28;20460;-51
2021/12/01 11:27:52;;;;;;;9.63;6.43;;;6.20;99.90;;;;;;5232829;28;20595;-49
2021/12/01 11:30:23;;;;;;;11.80;6.83;;;6.20;99.90;;;;;;5233813;28;20421;-49
2021/12/01 11:32:55;;;;;;;8.07;7.00;;;6.20;99.90;;;;;;5233777;28;22244;-49
2021/12/01 11:35:26;;;;;;;7.97;6.20;;;6.20;99.90;;;;;;5234607;28;20185;-50
2021/12/01 11:37:57;;;;;;;9.57;7.83;;;6.20;99.90;;;;;;5237105;28;20462;-49
2021/12/01 11:40:30;;;;;;;7.53;5.87;;;6.10;99.90;;;;;;5234066;28;20959;-49
2021/12/01 11:43:01;;;;;;;6.97;6.23;;;6.20;99.90;;;;;;5236551;28;20440;-49
2021/12/01 11:45:34;;;;;;;14.60;7.63;;;6.30;99.90;;;;;;5228421;28;20793;-49
2021/12/01 11:48:22;;;;;;;11.73;7.90;;;6.20;99.90;;;;;;5240963;28;20202;-49
2021/12/01 11:50:56;;;;;;;10.30;5.93;;;6.20;99.90;;;;;;5240706;28;20440;-49
2021/12/01 11:53:33;;;;;;;9.00;6.60;;;6.30;99.90;;;;;;5241155;28;20417;-49
2021/12/01 11:56:18;;;;;;;7.70;6.50;;;6.30;99.90;;;;;;5239365;28;20864;-50
2021/12/01 11:58:56;;;;;;;7.53;6.00;;;6.20;99.90;;;;;;5238471;28;20507;-49
2021/12/01 12:01:29;;;;;;;11.07;6.77;;;6.20;99.90;;;;;;5235184;28;20497;-49
2021/12/01 12:04:00;;;;;;;6.57;5.90;;;6.20;99.90;;;;;;5237819;28;20874;-49
2021/12/01 12:06:33;;;;;;;22.27;7.90;;;6.20;99.90;;;;;;5240860;28;20570;-50
2021/12/01 12:09:09;;;;;;;19.90;8.33;;;6.20;99.90;;;;;;5239769;28;20178;-50
2021/12/01 12:11:44;;;;;;;19.60;8.97;;;6.30;99.90;;;;;;5238668;28;20428;-51
2021/12/01 12:14:32;;;;;;;5.60;5.10;;;6.20;99.90;;;;;;5222170;28;20470;-49
2021/12/01 12:17:33;;;;;;;6.97;5.23;;;6.20;99.90;;;;;;5239801;28;20478;-49
2021/12/01 12:20:54;;;;;;;9.07;6.33;;;6.20;99.90;;;;;;5229421;28;20442;-48
2021/12/01 12:23:09;;;;;;;18.20;8.43;;;6.20;99.90;;;;;;5220260;28;20444;-49
2021/12/01 12:25:57;;;;;;;6.27;5.30;;;6.20;99.90;;;;;;5235433;28;20460;-50
2021/12/01 12:28:28;;;;;;;9.27;5.90;;;6.20;99.90;;;;;;5240507;28;20519;-55
2021/12/01 12:33:47;;;;;;;14.00;6.73;;;6.20;99.90;;;;;;5210095;28;20218;-50
2021/12/01 12:36:36;;;;;;;10.97;6.83;;;6.30;99.90;;;;;;5211991;28;20538;-50
2021/12/01 12:39:23;;;;;;;12.27;7.70;;;6.20;99.90;;;;;;5218377;28;21015;-51
2021/12/01 12:42:05;;;;;;;16.63;7.90;;;6.30;99.90;;;;;;5206569;28;20457;-50
2021/12/01 12:44:43;;;;;;;17.63;5.60;;;6.20;99.90;;;;;;5180033;28;20542;-50
2021/12/01 12:47:17;;;;;;;16.30;6.93;;;6.20;99.90;;;;;;5172936;28;20589;-52
2021/12/01 12:49:50;;;;;;;16.47;6.37;;;6.30;99.90;;;;;;5182358;28;20446;-50
2021/12/01 12:52:37;;;;;;;11.33;5.70;;;6.30;99.90;;;;;;5192782;28;20466;-49
2021/12/01 12:55:30;;;;;;;17.03;7.20;;;6.30;99.90;;;;;;5177320;28;20537;-49
2021/12/01 12:58:09;;;;;;;15.20;7.13;;;6.40;99.90;;;;;;5196437;28;20568;-50
2021/12/01 13:00:56;;;;;;;13.00;5.93;;;6.30;99.90;;;;;;5193930;28;20442;-51
2021/12/01 13:03:29;;;;;;;13.70;6.43;;;6.40;99.90;;;;;;5192309;28;20433;-50
2021/12/01 13:06:28;;;;;;;10.40;6.20;;;6.30;99.90;;;;;;5187640;28;21179;-50
2021/12/01 13:09:18;;;;;;;11.13;5.40;;;6.20;99.90;;;;;;5192243;28;20446;-50
2021/12/01 13:11:57;;;;;;;8.23;5.90;;;6.30;99.90;;;;;;5194285;28;20996;-51
2021/12/01 13:14:38;;;;;;;14.20;7.80;;;6.30;99.90;;;;;;5195047;28;20437;-49
2021/12/01 13:17:09;;;;;;;6.80;4.40;;;6.30;99.90;;;;;;5191592;28;20533;-51
2021/12/01 13:19:40;;;;;;;4.20;3.83;;;6.40;99.90;;;;;;5173764;28;20436;-50
2021/12/01 13:22:12;;;;;;;7.63;5.43;;;6.30;99.90;;;;;;5185213;28;20207;-51
2021/12/01 13:24:42;;;;;;;3.87;3.43;;;6.30;99.90;;;;;;5184884;28;20202;-50
2021/12/01 13:27:13;;;;;;;3.53;3.33;;;6.30;99.90;;;;;;5191805;28;20457;-51